createdAt,value
2024-02-29T00:01:17.288Z,3.55
2024-02-29T00:03:44.994Z,3.54
2024-02-29T00:06:12.614Z,3.54
2024-02-29T00:08:41.574Z,3.62
2024-02-29T00:11:09.181Z,3.47
2024-02-29T00:13:36.980Z,3.64
2024-02-29T00:16:04.970Z,3.62
2024-02-29T00:18:32.622Z,3.63
2024-02-29T00:21:00.242Z,3.44
2024-02-29T00:23:27.875Z,3.60
2024-02-29T00:25:56.789Z,3.52
2024-02-29T00:28:24.456Z,3.57
2024-02-29T00:30:52.079Z,3.60
2024-02-29T00:33:19.810Z,3.62
2024-02-29T00:35:49.605Z,3.65
2024-02-29T00:38:17.633Z,3.56
2024-02-29T00:40:45.701Z,3.66
2024-02-29T00:43:14.685Z,3.25
2024-02-29T00:45:42.765Z,3.24
2024-02-29T00:48:11.634Z,3.18
2024-02-29T00:50:39.428Z,3.34
2024-02-29T00:53:07.079Z,3.12
2024-02-29T00:55:34.892Z,3.03
2024-02-29T00:58:02.474Z,3.17
2024-02-29T01:00:31.742Z,3.40
2024-02-29T01:02:59.401Z,3.24
2024-02-29T01:05:26.996Z,3.13
2024-02-29T01:07:54.631Z,2.93
2024-02-29T01:10:22.242Z,2.60
2024-02-29T01:12:49.874Z,2.86
2024-02-29T01:15:17.943Z,3.00
2024-02-29T01:17:50.626Z,2.99
2024-02-29T01:20:19.492Z,2.96
2024-02-29T01:22:47.053Z,2.95
2024-02-29T01:25:14.692Z,3.09
2024-02-29T01:27:42.372Z,2.91
2024-02-29T01:30:11.044Z,2.67
2024-02-29T01:32:38.764Z,2.95
2024-02-29T01:35:09.605Z,3.01
2024-02-29T01:37:37.249Z,2.69
2024-02-29T01:40:05.578Z,2.62
2024-02-29T01:42:33.214Z,2.72
2024-02-29T01:45:00.790Z,2.79
2024-02-29T01:47:28.559Z,2.75
2024-02-29T01:49:59.244Z,2.92
2024-02-29T01:52:30.621Z,2.91
2024-02-29T01:54:58.410Z,2.83
2024-02-29T01:57:26.702Z,2.69
2024-02-29T01:59:54.292Z,2.49
2024-02-29T02:02:21.877Z,2.58
2024-02-29T02:04:49.613Z,2.62
2024-02-29T02:07:17.772Z,2.70
2024-02-29T02:09:47.392Z,2.51
2024-02-29T02:12:15.581Z,2.53
2024-02-29T02:14:43.186Z,2.48
2024-02-29T02:17:11.147Z,2.47
2024-02-29T02:19:40.511Z,2.37
2024-02-29T02:22:10.869Z,2.45
2024-02-29T02:24:38.837Z,2.37
2024-02-29T02:27:06.586Z,2.52
2024-02-29T02:29:34.145Z,2.57
2024-02-29T02:32:01.739Z,2.53
2024-02-29T02:34:29.306Z,2.22
2024-02-29T02:36:56.985Z,2.08
2024-02-29T02:39:26.243Z,2.11
2024-02-29T02:41:53.862Z,2.37
2024-02-29T02:44:21.446Z,2.20
2024-02-29T02:46:49.126Z,2.17
2024-02-29T02:49:17.012Z,2.08
2024-02-29T02:51:44.742Z,2.10
2024-02-29T02:54:12.384Z,2.47
2024-02-29T02:56:41.395Z,2.46
2024-02-29T02:59:09.006Z,2.40
2024-02-29T03:01:36.621Z,2.23
2024-02-29T03:04:05.388Z,2.39
2024-02-29T03:06:33.267Z,2.39
2024-02-29T03:09:00.881Z,2.15
2024-02-29T03:11:28.470Z,2.12
2024-02-29T03:13:58.832Z,2.33
2024-02-29T03:16:27.618Z,2.19
2024-02-29T03:18:55.477Z,1.97
2024-02-29T03:21:23.370Z,1.72
2024-02-29T03:23:50.998Z,1.94
2024-02-29T03:26:18.601Z,2.11
2024-02-29T03:28:46.201Z,2.31
2024-02-29T03:31:15.513Z,2.12
2024-02-29T03:33:43.600Z,2.06
2024-02-29T03:36:11.291Z,2.11
2024-02-29T03:38:39.090Z,1.81
2024-02-29T03:41:07.641Z,1.84
2024-02-29T03:43:36.347Z,1.98
2024-02-29T03:46:04.433Z,1.87
2024-02-29T03:48:33.424Z,1.97
2024-02-29T03:51:01.125Z,2.00
2024-02-29T03:53:28.698Z,1.89
2024-02-29T03:55:56.633Z,2.02
2024-02-29T03:58:24.499Z,2.02
2024-02-29T04:00:52.231Z,1.80
2024-02-29T04:03:20.161Z,1.90
2024-02-29T04:05:49.109Z,1.88
2024-02-29T04:08:16.848Z,1.85
2024-02-29T04:10:47.210Z,1.66
2024-02-29T04:13:14.890Z,1.66
2024-02-29T04:15:43.154Z,1.66
2024-02-29T04:18:11.443Z,1.69
2024-02-29T04:20:39.029Z,1.88
2024-02-29T04:23:08.046Z,1.93
2024-02-29T04:25:35.681Z,2.00
2024-02-29T04:28:03.975Z,1.88
2024-02-29T04:30:31.891Z,1.89
2024-02-29T04:33:01.474Z,1.58
2024-02-29T04:35:29.346Z,1.87
2024-02-29T04:37:56.970Z,1.97
2024-02-29T04:40:27.551Z,1.70
2024-02-29T04:42:55.285Z,1.82
2024-02-29T04:45:24.384Z,1.50
2024-02-29T04:47:53.210Z,1.61
2024-02-29T04:50:20.837Z,1.34
2024-02-29T04:52:48.435Z,1.18
2024-02-29T04:55:16.201Z,1.32
2024-02-29T04:57:45.248Z,1.61
2024-02-29T05:00:14.302Z,1.67
2024-02-29T05:02:41.986Z,1.71
2024-02-29T05:05:09.903Z,1.69
2024-02-29T05:07:38.620Z,1.62
2024-02-29T05:10:08.717Z,1.59
2024-02-29T05:12:36.841Z,1.72
2024-02-29T05:15:06.868Z,1.76
2024-02-29T05:17:34.542Z,1.53
2024-02-29T05:20:02.118Z,1.56
2024-02-29T05:22:29.699Z,1.59
2024-02-29T05:24:59.206Z,1.58
2024-02-29T05:27:30.583Z,1.47
2024-02-29T05:29:58.466Z,1.53
2024-02-29T05:32:28.982Z,1.47
2024-02-29T05:34:56.640Z,1.42
2024-02-29T05:37:24.898Z,1.64
2024-02-29T05:39:52.602Z,1.36
2024-02-29T05:42:22.379Z,1.39
2024-02-29T05:44:50.392Z,1.32
2024-02-29T05:47:18.087Z,1.40
2024-02-29T05:49:47.157Z,1.42
2024-02-29T05:52:15.001Z,1.46
2024-02-29T05:54:42.750Z,1.39
2024-02-29T05:57:10.485Z,1.35
2024-02-29T05:59:38.086Z,1.38
2024-02-29T06:02:06.297Z,1.50
2024-02-29T06:04:34.130Z,1.26
2024-02-29T06:07:03.374Z,1.36
2024-02-29T06:09:30.975Z,1.22
2024-02-29T06:11:58.946Z,0.95
2024-02-29T06:14:26.818Z,1.02
2024-02-29T06:16:54.422Z,1.15
2024-02-29T06:19:22.065Z,1.26
2024-02-29T06:21:50.126Z,1.21
2024-02-29T06:24:20.381Z,1.19
2024-02-29T06:26:48.349Z,1.10
2024-02-29T06:29:15.972Z,0.92
2024-02-29T06:31:44.078Z,0.88
2024-02-29T06:34:11.925Z,0.95
2024-02-29T06:36:39.851Z,1.05
2024-02-29T06:39:09.281Z,1.27
2024-02-29T06:41:39.417Z,1.07
2024-02-29T06:44:08.322Z,1.28
2024-02-29T06:46:35.919Z,1.36
2024-02-29T06:49:04.154Z,1.08
2024-02-29T06:51:33.219Z,1.44
2024-02-29T06:54:00.908Z,1.37
2024-02-29T06:56:28.468Z,1.46
2024-02-29T06:58:57.373Z,1.10
2024-02-29T07:01:25.439Z,1.25
2024-02-29T07:03:53.086Z,1.21
2024-02-29T07:06:20.953Z,1.44
2024-02-29T07:08:48.543Z,1.36
2024-02-29T07:11:16.150Z,1.49
2024-02-29T07:13:43.827Z,1.34
2024-02-29T07:16:12.821Z,1.41
2024-02-29T07:18:40.445Z,1.41
2024-02-29T07:21:08.056Z,1.49
2024-02-29T07:23:37.146Z,1.40
2024-02-29T07:26:05.385Z,1.47
2024-02-29T07:28:33.021Z,1.32
2024-02-29T07:31:00.759Z,1.34
2024-02-29T07:33:31.618Z,1.22
2024-02-29T07:35:59.218Z,1.26
2024-02-29T07:38:26.938Z,1.19
2024-02-29T07:40:54.553Z,1.31
2024-02-29T07:43:22.205Z,1.49
2024-02-29T07:45:49.892Z,1.13
2024-02-29T07:48:17.608Z,1.14
2024-02-29T07:50:46.737Z,1.31
2024-02-29T07:53:14.430Z,1.49
2024-02-29T07:55:42.101Z,1.59
2024-02-29T07:58:10.811Z,1.52
2024-02-29T08:00:39.115Z,1.66
2024-02-29T08:03:07.089Z,1.82
2024-02-29T08:05:35.669Z,1.83
2024-02-29T08:08:04.762Z,1.82
2024-02-29T08:10:32.422Z,2.00
2024-02-29T08:13:00.067Z,1.92
2024-02-29T08:15:27.705Z,1.98
2024-02-29T08:17:55.381Z,2.10
2024-02-29T08:20:26.441Z,2.14
2024-02-29T08:22:55.327Z,2.31
2024-02-29T08:25:24.990Z,2.51
2024-02-29T08:27:52.678Z,2.40
2024-02-29T08:30:20.684Z,2.36
2024-02-29T08:32:49.885Z,2.87
2024-02-29T08:35:17.764Z,2.47
2024-02-29T08:37:45.371Z,2.60
2024-02-29T08:40:13.679Z,2.68
2024-02-29T08:42:42.737Z,2.76
2024-02-29T08:45:11.235Z,2.47
2024-02-29T08:47:38.826Z,2.35
2024-02-29T08:50:07.946Z,2.23
2024-02-29T08:52:35.853Z,2.28
2024-02-29T08:55:04.442Z,2.40
2024-02-29T08:57:32.141Z,2.60
2024-02-29T09:00:01.485Z,3.00
2024-02-29T09:02:29.437Z,2.93
2024-02-29T09:04:57.046Z,3.31
2024-02-29T09:07:25.108Z,3.45
2024-02-29T09:09:52.881Z,3.81
2024-02-29T09:12:20.577Z,3.32
2024-02-29T09:14:48.434Z,3.54
2024-02-29T09:17:17.359Z,3.70
2024-02-29T09:19:45.545Z,3.80
2024-02-29T09:22:13.206Z,3.53
2024-02-29T09:24:41.018Z,4.08
2024-02-29T09:27:08.745Z,4.14
2024-02-29T09:29:36.348Z,4.54
2024-02-29T09:32:04.074Z,4.78
2024-02-29T09:34:38.342Z,4.91
2024-02-29T09:37:07.562Z,5.20
2024-02-29T09:39:35.445Z,5.57
2024-02-29T09:44:36.068Z,4.72
2024-02-29T09:47:04.396Z,4.81
2024-02-29T09:49:33.437Z,5.33
2024-02-29T09:52:01.144Z,5.71
2024-02-29T09:54:31.954Z,6.02
2024-02-29T09:56:59.744Z,6.60
2024-02-29T09:59:28.872Z,6.98
2024-02-29T10:01:56.953Z,7.55
2024-02-29T10:04:24.752Z,7.70
2024-02-29T10:06:54.235Z,7.23
2024-02-29T10:09:22.549Z,7.63
2024-02-29T10:11:50.352Z,8.06
2024-02-29T10:14:21.899Z,8.27
2024-02-29T10:16:52.802Z,8.52
2024-02-29T10:19:21.131Z,8.51
2024-02-29T10:21:49.211Z,8.93
2024-02-29T10:24:20.499Z,9.49
2024-02-29T10:26:48.248Z,9.23
2024-02-29T10:29:18.291Z,9.40
2024-02-29T10:31:46.073Z,9.66
2024-02-29T10:34:14.615Z,9.98
2024-02-29T10:36:42.359Z,10.50
2024-02-29T10:39:11.649Z,10.54
2024-02-29T10:41:42.856Z,10.98
2024-02-29T10:44:10.897Z,10.69
2024-02-29T10:46:39.403Z,10.00
2024-02-29T10:49:15.073Z,9.80
2024-02-29T10:51:45.677Z,10.14
2024-02-29T10:54:19.745Z,10.65
2024-02-29T10:56:50.547Z,10.72
2024-02-29T10:59:20.186Z,11.39
2024-02-29T11:01:49.261Z,12.06
2024-02-29T11:04:17.483Z,12.95
2024-02-29T11:06:48.242Z,11.06
2024-02-29T11:09:17.626Z,9.96
2024-02-29T11:11:46.457Z,11.31
2024-02-29T11:14:18.562Z,12.73
2024-02-29T11:16:47.881Z,13.47
2024-02-29T11:19:17.196Z,14.11
2024-02-29T11:21:44.935Z,15.24
2024-02-29T11:24:18.653Z,15.72
2024-02-29T11:26:46.258Z,16.25
2024-02-29T11:29:16.199Z,16.71
2024-02-29T11:31:45.411Z,17.32
2024-02-29T11:34:13.501Z,17.71
2024-02-29T11:36:42.114Z,17.75
2024-02-29T11:39:11.720Z,16.63
2024-02-29T11:41:39.555Z,15.38
2024-02-29T11:44:07.153Z,15.88
2024-02-29T11:46:36.058Z,16.56
2024-02-29T11:49:03.889Z,17.43
2024-02-29T11:51:31.560Z,17.97
2024-02-29T11:53:59.729Z,18.45
2024-02-29T11:56:27.745Z,18.36
2024-02-29T11:58:55.874Z,18.02
2024-02-29T12:01:24.734Z,18.42
2024-02-29T12:03:53.905Z,18.64
2024-02-29T12:06:21.964Z,19.44
2024-02-29T12:08:50.286Z,19.94
2024-02-29T12:11:18.673Z,19.73
2024-02-29T12:13:47.101Z,19.96
2024-02-29T12:16:15.611Z,19.96
2024-02-29T12:18:43.417Z,19.99
2024-02-29T12:21:12.999Z,20.33
2024-02-29T12:23:41.140Z,20.84
2024-02-29T12:26:10.851Z,20.38
2024-02-29T12:28:39.506Z,20.75
2024-02-29T12:31:08.312Z,21.03
2024-02-29T12:33:38.235Z,21.30
2024-02-29T12:36:07.180Z,21.16
2024-02-29T12:38:36.778Z,20.36
2024-02-29T12:41:06.293Z,20.80
2024-02-29T12:43:34.140Z,20.92
2024-02-29T12:46:04.326Z,20.86
2024-02-29T12:48:32.271Z,21.24
2024-02-29T12:50:59.882Z,21.46
2024-02-29T12:53:27.471Z,21.56
2024-02-29T12:55:56.457Z,21.87
2024-02-29T12:58:24.173Z,22.15
2024-02-29T13:00:51.955Z,22.27
2024-02-29T13:03:20.087Z,22.41
2024-02-29T13:05:47.765Z,22.46
2024-02-29T13:08:15.467Z,22.80
2024-02-29T13:10:43.060Z,22.39
2024-02-29T13:13:12.096Z,22.44
2024-02-29T13:15:39.731Z,22.72
2024-02-29T13:18:07.408Z,22.50
2024-02-29T13:20:35.081Z,22.49
2024-02-29T13:23:02.680Z,20.35
2024-02-29T13:25:30.810Z,20.54
2024-02-29T13:27:58.658Z,21.03
2024-02-29T13:30:27.616Z,21.41
2024-02-29T13:32:55.261Z,21.72
2024-02-29T13:35:22.851Z,21.43
2024-02-29T13:37:50.893Z,21.29
2024-02-29T13:40:18.852Z,21.38
2024-02-29T13:42:48.395Z,21.61
2024-02-29T13:45:16.698Z,21.62
2024-02-29T13:47:51.042Z,20.07
2024-02-29T13:50:19.905Z,18.98
2024-02-29T13:52:47.551Z,19.11
2024-02-29T13:55:15.608Z,19.85
2024-02-29T13:57:43.422Z,20.52
2024-02-29T14:00:12.046Z,20.74
2024-02-29T14:02:42.520Z,21.09
2024-02-29T14:05:11.591Z,21.73
2024-02-29T14:07:39.244Z,21.92
2024-02-29T14:10:08.763Z,21.94
2024-02-29T14:12:36.653Z,21.88
2024-02-29T14:15:04.662Z,21.89
2024-02-29T14:17:32.399Z,21.27
2024-02-29T14:20:00.380Z,20.11
2024-02-29T14:22:29.398Z,19.39
2024-02-29T14:24:57.016Z,19.42
2024-02-29T14:27:25.082Z,20.08
2024-02-29T14:29:52.680Z,20.14
2024-02-29T14:32:21.089Z,19.91
2024-02-29T14:34:48.818Z,20.23
2024-02-29T14:37:16.577Z,20.35
2024-02-29T14:39:46.136Z,20.18
2024-02-29T14:42:12.872Z,20.42
2024-02-29T14:44:40.462Z,20.28
2024-02-29T14:47:08.574Z,20.37
2024-02-29T14:49:36.228Z,20.29
2024-02-29T14:52:04.448Z,19.87
2024-02-29T14:54:32.202Z,19.62
2024-02-29T14:57:01.618Z,19.46
2024-02-29T14:59:29.826Z,19.52
2024-02-29T15:01:57.594Z,19.55
2024-02-29T15:04:25.320Z,19.17
2024-02-29T15:06:53.609Z,18.23
2024-02-29T15:09:21.353Z,18.34
2024-02-29T15:11:49.043Z,18.39
2024-02-29T15:14:18.410Z,18.09
2024-02-29T15:16:46.167Z,18.26
2024-02-29T15:19:13.981Z,18.00
2024-02-29T15:21:42.172Z,17.75
2024-02-29T15:24:10.106Z,17.58
2024-02-29T15:26:40.163Z,17.40
2024-02-29T15:29:08.835Z,17.04
2024-02-29T15:31:40.970Z,16.50
2024-02-29T15:34:08.827Z,16.33
2024-02-29T15:36:36.892Z,15.96
2024-02-29T15:39:05.520Z,15.80
2024-02-29T15:41:33.248Z,15.45
2024-02-29T15:44:00.833Z,15.18
2024-02-29T15:46:28.630Z,14.89
2024-02-29T15:48:57.866Z,14.69
2024-02-29T15:51:26.076Z,14.32
2024-02-29T15:53:53.707Z,14.41
2024-02-29T15:56:21.325Z,14.35
2024-02-29T15:58:48.985Z,14.07
2024-02-29T16:01:17.118Z,13.93
2024-02-29T16:03:44.758Z,13.74
2024-02-29T16:06:13.925Z,13.05
2024-02-29T16:08:41.529Z,13.06
2024-02-29T16:11:09.701Z,12.39
2024-02-29T16:13:37.464Z,12.06
2024-02-29T16:16:05.737Z,11.84
2024-02-29T16:18:33.375Z,11.89
2024-02-29T16:21:03.030Z,11.97
2024-02-29T16:23:32.023Z,11.66
2024-02-29T16:25:59.668Z,11.67
2024-02-29T16:28:27.970Z,11.42
2024-02-29T16:30:55.624Z,11.04
2024-02-29T16:33:23.399Z,10.41
2024-02-29T16:35:51.388Z,10.41
2024-02-29T16:38:19.110Z,10.55
2024-02-29T16:40:48.623Z,10.71
2024-02-29T16:43:21.368Z,10.41
2024-02-29T16:45:49.484Z,10.54
2024-02-29T16:48:17.407Z,10.57
2024-02-29T16:50:46.312Z,10.90
2024-02-29T16:53:14.270Z,10.50
2024-02-29T16:55:41.869Z,10.50
2024-02-29T16:58:10.883Z,10.47
2024-02-29T17:00:39.270Z,9.87
2024-02-29T17:03:06.953Z,10.10
2024-02-29T17:05:34.640Z,10.09
2024-02-29T17:08:02.265Z,9.99
2024-02-29T17:10:30.715Z,10.09
2024-02-29T17:12:59.382Z,10.01
2024-02-29T17:15:28.772Z,10.09
2024-02-29T17:17:56.521Z,9.70
2024-02-29T17:20:24.165Z,9.52
2024-02-29T17:22:51.711Z,9.14
2024-02-29T17:25:19.764Z,9.13
2024-02-29T17:27:47.525Z,8.97
2024-02-29T17:30:16.594Z,8.77
2024-02-29T17:32:48.293Z,9.10
2024-02-29T17:35:17.128Z,9.15
2024-02-29T17:37:45.348Z,8.83
2024-02-29T17:40:13.798Z,8.78
2024-02-29T17:42:41.629Z,9.06
2024-02-29T17:45:10.821Z,9.10
2024-02-29T17:47:41.406Z,9.04
2024-02-29T17:50:16.492Z,8.93
2024-02-29T17:52:44.678Z,8.92
2024-02-29T17:55:15.494Z,9.15
2024-02-29T17:57:43.826Z,8.80
2024-02-29T18:00:13.014Z,8.91
2024-02-29T18:02:41.527Z,8.92
2024-02-29T18:05:12.362Z,8.91
2024-02-29T18:07:46.729Z,8.86
2024-02-29T18:10:19.035Z,8.88
2024-02-29T18:12:47.281Z,9.07
2024-02-29T18:15:16.123Z,8.93
2024-02-29T18:17:45.161Z,8.90
2024-02-29T18:20:17.793Z,8.73
2024-02-29T18:22:45.635Z,8.88
2024-02-29T18:25:13.414Z,8.68
2024-02-29T18:27:41.142Z,8.44
2024-02-29T18:30:10.063Z,8.79
2024-02-29T18:32:37.750Z,8.49
2024-02-29T18:35:09.689Z,8.54
2024-02-29T18:37:40.851Z,8.55
2024-02-29T18:40:12.091Z,8.81
2024-02-29T18:42:39.787Z,8.79
2024-02-29T18:45:08.552Z,8.89
2024-02-29T18:47:36.920Z,8.67
2024-02-29T18:50:06.648Z,8.61
2024-02-29T18:52:34.767Z,8.80
2024-02-29T18:55:04.754Z,8.79
2024-02-29T18:57:32.427Z,8.33
2024-02-29T18:59:59.998Z,8.09
2024-02-29T19:02:27.619Z,7.70
2024-02-29T19:04:55.250Z,7.98
2024-02-29T19:07:26.371Z,7.80
2024-02-29T19:09:55.795Z,7.80
2024-02-29T19:12:26.321Z,8.02
2024-02-29T19:14:54.169Z,8.08
2024-02-29T19:17:22.895Z,8.17
2024-02-29T19:19:51.102Z,7.95
2024-02-29T19:22:18.836Z,7.91
2024-02-29T19:24:46.563Z,7.72
2024-02-29T19:27:14.218Z,7.65
2024-02-29T19:29:43.565Z,7.45
2024-02-29T19:32:11.175Z,7.56
2024-02-29T19:34:38.754Z,7.52
2024-02-29T19:37:06.680Z,7.42
2024-02-29T19:39:35.790Z,7.34
2024-02-29T19:42:04.188Z,7.38
2024-02-29T19:44:31.780Z,7.58
2024-02-29T19:47:00.761Z,7.62
2024-02-29T19:49:28.484Z,7.72
2024-02-29T19:51:57.575Z,7.67
2024-02-29T19:54:25.225Z,7.71
2024-02-29T19:56:52.881Z,7.73
2024-02-29T19:59:20.510Z,7.71
2024-02-29T20:01:48.208Z,7.64
2024-02-29T20:04:18.806Z,7.75
2024-02-29T20:06:48.062Z,7.72
2024-02-29T20:09:16.283Z,7.63
2024-02-29T20:11:43.962Z,7.65
2024-02-29T20:14:11.542Z,7.54
2024-02-29T20:16:39.361Z,7.67
2024-02-29T20:19:08.792Z,7.71
2024-02-29T20:21:37.825Z,7.52
2024-02-29T20:24:06.212Z,7.50
2024-02-29T20:26:34.273Z,7.52
2024-02-29T20:29:01.864Z,7.31
2024-02-29T20:31:30.152Z,7.26
2024-02-29T20:33:58.311Z,7.38
2024-02-29T20:36:26.232Z,7.12
2024-02-29T20:38:55.212Z,6.97
2024-02-29T20:41:22.882Z,7.11
2024-02-29T20:43:50.434Z,7.14
2024-02-29T20:46:18.174Z,7.22
2024-02-29T20:48:48.975Z,6.92
2024-02-29T20:51:16.683Z,6.77
2024-02-29T20:53:44.669Z,6.86
2024-02-29T20:56:13.972Z,6.88
2024-02-29T20:58:41.609Z,6.83
2024-02-29T21:01:09.442Z,6.80
2024-02-29T21:03:37.195Z,6.65
2024-02-29T21:06:05.187Z,6.60
2024-02-29T21:08:33.485Z,6.92
2024-02-29T21:11:02.057Z,6.83
2024-02-29T21:13:31.931Z,6.78
2024-02-29T21:15:59.804Z,6.71
2024-02-29T21:18:27.569Z,6.42
2024-02-29T21:20:55.448Z,6.50
2024-02-29T21:23:23.100Z,6.74
2024-02-29T21:25:50.742Z,6.44
2024-02-29T21:28:18.580Z,6.54
2024-02-29T21:30:47.707Z,6.58
2024-02-29T21:33:16.360Z,6.48
2024-02-29T21:35:44.126Z,6.34
2024-02-29T21:38:11.719Z,6.42
2024-02-29T21:40:39.377Z,6.40
2024-02-29T21:43:07.230Z,6.20
2024-02-29T21:45:34.937Z,6.41
2024-02-29T21:48:04.169Z,6.35
2024-02-29T21:50:31.879Z,6.04
2024-02-29T21:52:59.470Z,6.18
2024-02-29T21:55:27.144Z,6.02
2024-02-29T21:57:55.427Z,6.18
2024-02-29T22:00:23.993Z,5.90
2024-02-29T22:02:51.971Z,5.91
2024-02-29T22:05:21.392Z,5.98
2024-02-29T22:07:49.406Z,5.82
2024-02-29T22:10:17.096Z,5.75
2024-02-29T22:12:44.934Z,5.81
2024-02-29T22:15:13.534Z,5.75
2024-02-29T22:17:41.200Z,5.61
2024-02-29T22:20:09.572Z,5.74
2024-02-29T22:22:38.460Z,5.62
2024-02-29T22:25:06.713Z,5.78
2024-02-29T22:27:34.330Z,5.57
2024-02-29T22:30:02.002Z,5.35
2024-02-29T22:32:29.697Z,5.43
2024-02-29T22:34:57.267Z,5.52
2024-02-29T22:37:24.990Z,5.17
2024-02-29T22:39:54.055Z,5.33
2024-02-29T22:42:21.643Z,5.39
2024-02-29T22:44:49.312Z,5.40
2024-02-29T22:47:16.887Z,5.55
2024-02-29T22:49:45.166Z,5.26
2024-02-29T22:52:12.845Z,5.46
2024-02-29T22:54:40.662Z,5.38
2024-02-29T22:57:10.039Z,5.29
2024-02-29T22:59:38.194Z,5.45
2024-02-29T23:02:05.996Z,5.18
2024-02-29T23:04:33.825Z,5.12
2024-02-29T23:07:01.562Z,5.05
2024-02-29T23:09:29.263Z,4.96
2024-02-29T23:11:56.947Z,4.89
2024-02-29T23:14:25.853Z,5.09
2024-02-29T23:16:53.840Z,5.17
2024-02-29T23:19:21.651Z,4.90
2024-02-29T23:21:49.446Z,4.79
2024-02-29T23:24:17.081Z,4.91
2024-02-29T23:26:44.740Z,5.16
2024-02-29T23:29:12.447Z,5.18
2024-02-29T23:31:41.414Z,5.08
2024-02-29T23:34:09.017Z,4.89
2024-02-29T23:36:36.717Z,5.09
2024-02-29T23:39:06.242Z,4.94
2024-02-29T23:41:33.800Z,4.80
2024-02-29T23:44:01.433Z,4.90
2024-02-29T23:46:29.492Z,4.66
2024-02-29T23:48:58.507Z,4.73
2024-02-29T23:51:26.085Z,4.67
2024-02-29T23:53:54.227Z,4.64
2024-02-29T23:56:22.120Z,4.85
2024-02-29T23:58:49.745Z,4.70
